Accueil
METAR-TAF:

METAR-TAF

Aéroports :

Muskoka, Ontario, Canada

latitude: 44-58N, longitude: 079-18W, altitude: 280 m

Observation

Le bulletin a été fait il y a 26 minutes, à 02:00 UTC
Vent 3 kt de sud/sud-est
Température -2°C
Humidité 74%
Pression 1038 hPa
Visibilité: 14.5 km
Ciel couvert à une hauteur de 11000 ft

METAR: CYQA 230200Z AUTO 15003KT 9SM OVC110 M02/M06 A3064 RMK SLP393

Heure: 21:26 (02:26 UTC)

Prévision

Le bulletin a été fait il y a 6 heures et 47 minutes, à 19:39 UTC
Prévision valable du 22 à 20 UTC au 23 à 03 UTC
Vent 5 kt de sud/sud-est
Visibilité: 10 km
Ciel clair
A partir de 22 à 2100 UTC
Vent 5 kt de est/sud-est
Visibilité: 10 km
Quelques nuages à une hauteur de 3000 ft
Nuages fragmentés à une hauteur de 12000 ft

TAF: CYQA 221939Z 2220/2303 15005KT P6SM SKC FM222100 12005KT P6SM FEW030 BKN120 RMK FCST BASED ON AUTO OBS. NXT FCST WILL BE ISSUED AT 231245Z

Observations et prévisions météorologiques de plus de 4000 aéroports (messages METAR et TAF).

Les stations disponibles sont représentées par des disques jaunes et rouges sur la carte.

Passer la souris dessus pour voir le nom de la station.

Cliquer dessus pour voir les observations et prévisions météorologiques.

Pour changer de carte: cliquez sur les boutons verts avec une croix noire pour zoomer, sur le bouton vert avec un tiret pour effectuer un zoom arrière, ou sur les flèches vertes pour les cartes adjacentes.


METAR-TAF: